sensor_id;sensor_type;location;lat;lon;timestamp;P1;durP1;ratioP1;P2;durP2;ratioP2
30539;SDS011;17321;46.312;4.776;2023-08-24T00:00:39;6.53;;;2.53;;
30539;SDS011;17321;46.312;4.776;2023-08-24T00:03:05;9.00;;;2.28;;
30539;SDS011;17321;46.312;4.776;2023-08-24T00:05:35;4.00;;;2.20;;
30539;SDS011;17321;46.312;4.776;2023-08-24T00:08:05;2.78;;;1.92;;
30539;SDS011;17321;46.312;4.776;2023-08-24T00:10:33;5.47;;;2.50;;
30539;SDS011;17321;46.312;4.776;2023-08-24T00:12:59;2.92;;;2.42;;
30539;SDS011;17321;46.312;4.776;2023-08-24T00:15:25;5.55;;;2.40;;
30539;SDS011;17321;46.312;4.776;2023-08-24T00:17:51;7.88;;;2.15;;
30539;SDS011;17321;46.312;4.776;2023-08-24T00:20:18;4.85;;;2.30;;
30539;SDS011;17321;46.312;4.776;2023-08-24T00:22:45;7.43;;;2.08;;
30539;SDS011;17321;46.312;4.776;2023-08-24T00:25:11;11.27;;;2.80;;
30539;SDS011;17321;46.312;4.776;2023-08-24T00:27:37;5.25;;;2.60;;
30539;SDS011;17321;46.312;4.776;2023-08-24T00:30:04;2.53;;;2.33;;
30539;SDS011;17321;46.312;4.776;2023-08-24T00:32:31;8.43;;;2.17;;
30539;SDS011;17321;46.312;4.776;2023-08-24T00:35:01;3.75;;;2.38;;
30539;SDS011;17321;46.312;4.776;2023-08-24T00:37:28;2.80;;;2.10;;
30539;SDS011;17321;46.312;4.776;2023-08-24T00:39:54;3.67;;;2.30;;
30539;SDS011;17321;46.312;4.776;2023-08-24T00:42:21;6.85;;;2.88;;
30539;SDS011;17321;46.312;4.776;2023-08-24T00:44:48;3.20;;;2.42;;
30539;SDS011;17321;46.312;4.776;2023-08-24T00:47:14;2.40;;;2.10;;
30539;SDS011;17321;46.312;4.776;2023-08-24T00:49:41;3.58;;;2.60;;
30539;SDS011;17321;46.312;4.776;2023-08-24T00:52:07;3.60;;;2.17;;
30539;SDS011;17321;46.312;4.776;2023-08-24T00:54:34;3.47;;;2.35;;
30539;SDS011;17321;46.312;4.776;2023-08-24T00:57:01;10.75;;;2.25;;
30539;SDS011;17321;46.312;4.776;2023-08-24T00:59:27;8.80;;;2.50;;
30539;SDS011;17321;46.312;4.776;2023-08-24T01:01:53;6.43;;;2.70;;
30539;SDS011;17321;46.312;4.776;2023-08-24T01:04:19;7.78;;;2.80;;
30539;SDS011;17321;46.312;4.776;2023-08-24T01:06:46;7.60;;;2.90;;
30539;SDS011;17321;46.312;4.776;2023-08-24T01:09:12;3.20;;;2.45;;
30539;SDS011;17321;46.312;4.776;2023-08-24T01:14:17;3.08;;;2.38;;
30539;SDS011;17321;46.312;4.776;2023-08-24T01:16:46;3.83;;;2.53;;
30539;SDS011;17321;46.312;4.776;2023-08-24T01:19:22;5.53;;;2.00;;
30539;SDS011;17321;46.312;4.776;2023-08-24T01:21:51;3.75;;;2.30;;
30539;SDS011;17321;46.312;4.776;2023-08-24T01:24:30;7.93;;;2.95;;
30539;SDS011;17321;46.312;4.776;2023-08-24T01:26:57;3.47;;;2.65;;
30539;SDS011;17321;46.312;4.776;2023-08-24T01:29:23;5.53;;;2.72;;
30539;SDS011;17321;46.312;4.776;2023-08-24T01:31:50;6.07;;;3.05;;
30539;SDS011;17321;46.312;4.776;2023-08-24T01:34:16;6.93;;;2.58;;
30539;SDS011;17321;46.312;4.776;2023-08-24T01:36:43;5.28;;;3.00;;
30539;SDS011;17321;46.312;4.776;2023-08-24T01:39:14;7.00;;;2.97;;
30539;SDS011;17321;46.312;4.776;2023-08-24T01:41:42;7.55;;;3.08;;
30539;SDS011;17321;46.312;4.776;2023-08-24T01:44:12;4.80;;;3.00;;
30539;SDS011;17321;46.312;4.776;2023-08-24T01:46:39;3.88;;;2.67;;
30539;SDS011;17321;46.312;4.776;2023-08-24T01:49:05;3.60;;;2.60;;
30539;SDS011;17321;46.312;4.776;2023-08-24T01:51:32;6.35;;;3.08;;
30539;SDS011;17321;46.312;4.776;2023-08-24T01:53:59;7.50;;;2.85;;
30539;SDS011;17321;46.312;4.776;2023-08-24T01:56:25;4.13;;;2.88;;
30539;SDS011;17321;46.312;4.776;2023-08-24T01:58:51;5.50;;;2.97;;
30539;SDS011;17321;46.312;4.776;2023-08-24T02:01:18;6.25;;;2.55;;
30539;SDS011;17321;46.312;4.776;2023-08-24T02:03:44;5.68;;;2.60;;
30539;SDS011;17321;46.312;4.776;2023-08-24T02:06:10;4.68;;;3.45;;
30539;SDS011;17321;46.312;4.776;2023-08-24T02:08:36;6.45;;;2.80;;
30539;SDS011;17321;46.312;4.776;2023-08-24T02:11:02;5.07;;;2.90;;
30539;SDS011;17321;46.312;4.776;2023-08-24T02:13:28;8.63;;;3.20;;
30539;SDS011;17321;46.312;4.776;2023-08-24T02:16:04;5.45;;;2.38;;
30539;SDS011;17321;46.312;4.776;2023-08-24T02:18:30;6.20;;;2.72;;
30539;SDS011;17321;46.312;4.776;2023-08-24T02:20:57;5.05;;;2.60;;
30539;SDS011;17321;46.312;4.776;2023-08-24T02:23:23;5.53;;;2.90;;
30539;SDS011;17321;46.312;4.776;2023-08-24T02:25:49;7.60;;;3.55;;
30539;SDS011;17321;46.312;4.776;2023-08-24T02:28:15;4.18;;;2.53;;
30539;SDS011;17321;46.312;4.776;2023-08-24T02:30:41;6.70;;;2.30;;
30539;SDS011;17321;46.312;4.776;2023-08-24T02:33:07;5.57;;;2.90;;
30539;SDS011;17321;46.312;4.776;2023-08-24T02:35:33;6.50;;;2.95;;
30539;SDS011;17321;46.312;4.776;2023-08-24T02:37:59;3.75;;;2.75;;
30539;SDS011;17321;46.312;4.776;2023-08-24T02:40:26;4.05;;;2.58;;
30539;SDS011;17321;46.312;4.776;2023-08-24T02:42:52;7.82;;;3.05;;
30539;SDS011;17321;46.312;4.776;2023-08-24T02:45:18;4.43;;;3.00;;
30539;SDS011;17321;46.312;4.776;2023-08-24T02:47:44;7.43;;;3.10;;
30539;SDS011;17321;46.312;4.776;2023-08-24T02:50:10;6.20;;;3.25;;
30539;SDS011;17321;46.312;4.776;2023-08-24T02:52:36;5.25;;;3.10;;
30539;SDS011;17321;46.312;4.776;2023-08-24T02:55:02;7.82;;;3.38;;
30539;SDS011;17321;46.312;4.776;2023-08-24T02:57:29;4.38;;;3.38;;
30539;SDS011;17321;46.312;4.776;2023-08-24T02:59:55;4.63;;;3.22;;
30539;SDS011;17321;46.312;4.776;2023-08-24T03:02:21;5.93;;;2.80;;
30539;SDS011;17321;46.312;4.776;2023-08-24T03:04:47;4.07;;;3.13;;
30539;SDS011;17321;46.312;4.776;2023-08-24T03:07:13;4.07;;;2.90;;
30539;SDS011;17321;46.312;4.776;2023-08-24T03:09:39;3.45;;;3.00;;
30539;SDS011;17321;46.312;4.776;2023-08-24T03:12:05;4.32;;;3.05;;
30539;SDS011;17321;46.312;4.776;2023-08-24T03:14:31;8.18;;;3.60;;
30539;SDS011;17321;46.312;4.776;2023-08-24T03:16:57;7.53;;;3.75;;
30539;SDS011;17321;46.312;4.776;2023-08-24T03:19:23;4.72;;;2.97;;
30539;SDS011;17321;46.312;4.776;2023-08-24T03:21:50;7.57;;;3.00;;
30539;SDS011;17321;46.312;4.776;2023-08-24T03:24:16;8.77;;;3.53;;
30539;SDS011;17321;46.312;4.776;2023-08-24T03:26:42;4.80;;;3.17;;
30539;SDS011;17321;46.312;4.776;2023-08-24T03:29:08;7.18;;;3.05;;
30539;SDS011;17321;46.312;4.776;2023-08-24T03:31:34;6.10;;;3.05;;
30539;SDS011;17321;46.312;4.776;2023-08-24T03:34:00;6.80;;;3.13;;
30539;SDS011;17321;46.312;4.776;2023-08-24T03:36:28;5.20;;;2.73;;
30539;SDS011;17321;46.312;4.776;2023-08-24T03:38:54;5.93;;;3.53;;
30539;SDS011;17321;46.312;4.776;2023-08-24T03:41:21;5.32;;;3.20;;
30539;SDS011;17321;46.312;4.776;2023-08-24T03:43:47;3.65;;;2.72;;
30539;SDS011;17321;46.312;4.776;2023-08-24T03:46:13;7.38;;;3.10;;
30539;SDS011;17321;46.312;4.776;2023-08-24T03:48:39;4.57;;;3.13;;
30539;SDS011;17321;46.312;4.776;2023-08-24T03:51:05;9.65;;;3.33;;
30539;SDS011;17321;46.312;4.776;2023-08-24T03:53:32;4.10;;;2.83;;
30539;SDS011;17321;46.312;4.776;2023-08-24T03:55:58;8.15;;;3.00;;
30539;SDS011;17321;46.312;4.776;2023-08-24T03:58:24;3.90;;;2.38;;
30539;SDS011;17321;46.312;4.776;2023-08-24T04:00:50;4.10;;;3.38;;
30539;SDS011;17321;46.312;4.776;2023-08-24T04:03:16;6.32;;;3.05;;
30539;SDS011;17321;46.312;4.776;2023-08-24T04:05:42;3.88;;;2.88;;
30539;SDS011;17321;46.312;4.776;2023-08-24T04:08:08;11.60;;;3.28;;
30539;SDS011;17321;46.312;4.776;2023-08-24T04:10:34;7.10;;;3.33;;
30539;SDS011;17321;46.312;4.776;2023-08-24T04:13:00;9.25;;;4.03;;
30539;SDS011;17321;46.312;4.776;2023-08-24T04:15:26;3.47;;;3.00;;
30539;SDS011;17321;46.312;4.776;2023-08-24T04:17:52;4.90;;;3.72;;
30539;SDS011;17321;46.312;4.776;2023-08-24T04:20:18;5.38;;;2.75;;
30539;SDS011;17321;46.312;4.776;2023-08-24T04:22:46;6.53;;;3.10;;
30539;SDS011;17321;46.312;4.776;2023-08-24T04:25:12;5.78;;;3.28;;
30539;SDS011;17321;46.312;4.776;2023-08-24T04:27:38;5.95;;;3.40;;
30539;SDS011;17321;46.312;4.776;2023-08-24T04:30:04;8.82;;;2.90;;
30539;SDS011;17321;46.312;4.776;2023-08-24T04:32:31;3.75;;;2.92;;
30539;SDS011;17321;46.312;4.776;2023-08-24T04:34:58;3.83;;;2.90;;
30539;SDS011;17321;46.312;4.776;2023-08-24T04:37:24;5.97;;;2.72;;
30539;SDS011;17321;46.312;4.776;2023-08-24T04:39:50;9.35;;;3.22;;
30539;SDS011;17321;46.312;4.776;2023-08-24T04:42:16;5.72;;;3.20;;
30539;SDS011;17321;46.312;4.776;2023-08-24T04:44:42;5.82;;;3.55;;
30539;SDS011;17321;46.312;4.776;2023-08-24T04:47:08;6.93;;;3.28;;
30539;SDS011;17321;46.312;4.776;2023-08-24T04:49:35;6.47;;;3.17;;
30539;SDS011;17321;46.312;4.776;2023-08-24T04:52:02;5.28;;;3.60;;
30539;SDS011;17321;46.312;4.776;2023-08-24T04:54:28;9.45;;;3.60;;
30539;SDS011;17321;46.312;4.776;2023-08-24T04:56:54;11.43;;;3.75;;
30539;SDS011;17321;46.312;4.776;2023-08-24T04:59:20;4.35;;;2.85;;
30539;SDS011;17321;46.312;4.776;2023-08-24T05:01:46;4.82;;;3.20;;
30539;SDS011;17321;46.312;4.776;2023-08-24T05:04:12;12.40;;;2.95;;
30539;SDS011;17321;46.312;4.776;2023-08-24T05:06:39;9.10;;;3.78;;
30539;SDS011;17321;46.312;4.776;2023-08-24T05:09:05;5.40;;;2.58;;
30539;SDS011;17321;46.312;4.776;2023-08-24T05:11:31;3.33;;;2.85;;
30539;SDS011;17321;46.312;4.776;2023-08-24T05:13:57;6.32;;;3.45;;
30539;SDS011;17321;46.312;4.776;2023-08-24T05:16:24;4.63;;;3.03;;
30539;SDS011;17321;46.312;4.776;2023-08-24T05:18:50;5.88;;;3.38;;
30539;SDS011;17321;46.312;4.776;2023-08-24T05:21:16;6.63;;;3.33;;
30539;SDS011;17321;46.312;4.776;2023-08-24T05:23:42;8.77;;;3.30;;
30539;SDS011;17321;46.312;4.776;2023-08-24T05:26:08;7.82;;;3.20;;
30539;SDS011;17321;46.312;4.776;2023-08-24T05:28:34;6.50;;;3.45;;
30539;SDS011;17321;46.312;4.776;2023-08-24T05:31:00;8.40;;;3.13;;
30539;SDS011;17321;46.312;4.776;2023-08-24T05:33:27;9.27;;;3.67;;
30539;SDS011;17321;46.312;4.776;2023-08-24T05:38:22;11.10;;;3.53;;
30539;SDS011;17321;46.312;4.776;2023-08-24T05:40:48;8.25;;;3.30;;
30539;SDS011;17321;46.312;4.776;2023-08-24T05:43:14;7.78;;;3.40;;
30539;SDS011;17321;46.312;4.776;2023-08-24T05:45:40;7.63;;;3.40;;
30539;SDS011;17321;46.312;4.776;2023-08-24T05:48:09;5.78;;;3.72;;
30539;SDS011;17321;46.312;4.776;2023-08-24T05:50:36;6.18;;;3.70;;
30539;SDS011;17321;46.312;4.776;2023-08-24T05:53:03;8.90;;;3.90;;
30539;SDS011;17321;46.312;4.776;2023-08-24T05:55:29;6.50;;;3.70;;
30539;SDS011;17321;46.312;4.776;2023-08-24T05:57:55;5.40;;;3.28;;
30539;SDS011;17321;46.312;4.776;2023-08-24T06:00:21;9.00;;;3.53;;
30539;SDS011;17321;46.312;4.776;2023-08-24T06:02:48;6.43;;;3.78;;
30539;SDS011;17321;46.312;4.776;2023-08-24T06:05:14;6.53;;;3.70;;
30539;SDS011;17321;46.312;4.776;2023-08-24T06:07:42;12.45;;;4.10;;
30539;SDS011;17321;46.312;4.776;2023-08-24T06:10:08;7.53;;;4.28;;
30539;SDS011;17321;46.312;4.776;2023-08-24T06:12:35;15.45;;;4.20;;
30539;SDS011;17321;46.312;4.776;2023-08-24T06:15:01;7.30;;;3.90;;
30539;SDS011;17321;46.312;4.776;2023-08-24T06:17:29;5.32;;;3.28;;
30539;SDS011;17321;46.312;4.776;2023-08-24T06:19:55;13.55;;;4.68;;
30539;SDS011;17321;46.312;4.776;2023-08-24T06:22:22;11.35;;;5.50;;
30539;SDS011;17321;46.312;4.776;2023-08-24T06:24:48;8.90;;;3.53;;
30539;SDS011;17321;46.312;4.776;2023-08-24T06:27:14;7.53;;;3.50;;
30539;SDS011;17321;46.312;4.776;2023-08-24T06:29:43;7.50;;;3.60;;
30539;SDS011;17321;46.312;4.776;2023-08-24T06:32:09;11.88;;;4.10;;
30539;SDS011;17321;46.312;4.776;2023-08-24T06:34:35;12.57;;;3.60;;
30539;SDS011;17321;46.312;4.776;2023-08-24T06:37:01;7.40;;;4.25;;
30539;SDS011;17321;46.312;4.776;2023-08-24T06:39:28;6.63;;;3.85;;
30539;SDS011;17321;46.312;4.776;2023-08-24T06:41:55;10.25;;;4.28;;
30539;SDS011;17321;46.312;4.776;2023-08-24T06:44:21;13.30;;;4.20;;
30539;SDS011;17321;46.312;4.776;2023-08-24T06:46:47;7.30;;;4.07;;
30539;SDS011;17321;46.312;4.776;2023-08-24T06:49:13;7.82;;;4.35;;
30539;SDS011;17321;46.312;4.776;2023-08-24T06:51:39;17.20;;;4.28;;
30539;SDS011;17321;46.312;4.776;2023-08-24T06:54:06;14.00;;;4.18;;
30539;SDS011;17321;46.312;4.776;2023-08-24T06:56:32;9.82;;;3.72;;
30539;SDS011;17321;46.312;4.776;2023-08-24T06:58:58;5.38;;;3.85;;
30539;SDS011;17321;46.312;4.776;2023-08-24T07:01:24;15.55;;;4.72;;
30539;SDS011;17321;46.312;4.776;2023-08-24T07:03:51;7.90;;;3.53;;
30539;SDS011;17321;46.312;4.776;2023-08-24T07:06:17;8.65;;;3.80;;
30539;SDS011;17321;46.312;4.776;2023-08-24T07:08:43;8.45;;;3.90;;
30539;SDS011;17321;46.312;4.776;2023-08-24T07:11:09;8.25;;;4.18;;
30539;SDS011;17321;46.312;4.776;2023-08-24T07:13:35;28.30;;;4.50;;
30539;SDS011;17321;46.312;4.776;2023-08-24T07:16:01;8.20;;;4.22;;
30539;SDS011;17321;46.312;4.776;2023-08-24T07:20:56;10.63;;;4.22;;
30539;SDS011;17321;46.312;4.776;2023-08-24T07:23:22;20.40;;;4.53;;
30539;SDS011;17321;46.312;4.776;2023-08-24T07:25:48;11.98;;;3.42;;
30539;SDS011;17321;46.312;4.776;2023-08-24T07:28:14;17.33;;;4.13;;
30539;SDS011;17321;46.312;4.776;2023-08-24T07:30:40;9.65;;;3.78;;
30539;SDS011;17321;46.312;4.776;2023-08-24T07:33:07;10.20;;;4.30;;
30539;SDS011;17321;46.312;4.776;2023-08-24T07:35:33;13.48;;;4.15;;
30539;SDS011;17321;46.312;4.776;2023-08-24T07:37:59;9.05;;;4.05;;
30539;SDS011;17321;46.312;4.776;2023-08-24T07:40:25;10.23;;;3.90;;
30539;SDS011;17321;46.312;4.776;2023-08-24T07:42:52;9.20;;;3.65;;
30539;SDS011;17321;46.312;4.776;2023-08-24T07:45:21;7.15;;;4.00;;
30539;SDS011;17321;46.312;4.776;2023-08-24T07:47:50;9.55;;;3.80;;
30539;SDS011;17321;46.312;4.776;2023-08-24T07:50:16;13.85;;;4.25;;
30539;SDS011;17321;46.312;4.776;2023-08-24T07:52:42;5.80;;;4.03;;
30539;SDS011;17321;46.312;4.776;2023-08-24T07:55:09;9.48;;;4.10;;
30539;SDS011;17321;46.312;4.776;2023-08-24T07:57:35;16.05;;;3.85;;
30539;SDS011;17321;46.312;4.776;2023-08-24T08:00:02;14.90;;;4.60;;
30539;SDS011;17321;46.312;4.776;2023-08-24T08:02:29;13.68;;;4.53;;
30539;SDS011;17321;46.312;4.776;2023-08-24T08:04:57;15.90;;;3.97;;
30539;SDS011;17321;46.312;4.776;2023-08-24T08:07:26;10.93;;;4.45;;
30539;SDS011;17321;46.312;4.776;2023-08-24T08:09:52;8.82;;;4.20;;
30539;SDS011;17321;46.312;4.776;2023-08-24T08:12:18;16.80;;;4.13;;
30539;SDS011;17321;46.312;4.776;2023-08-24T08:14:44;8.25;;;3.50;;
30539;SDS011;17321;46.312;4.776;2023-08-24T08:17:11;9.07;;;4.07;;
30539;SDS011;17321;46.312;4.776;2023-08-24T08:19:37;5.68;;;4.03;;
30539;SDS011;17321;46.312;4.776;2023-08-24T08:22:03;5.10;;;3.72;;
30539;SDS011;17321;46.312;4.776;2023-08-24T08:24:30;6.18;;;3.50;;
30539;SDS011;17321;46.312;4.776;2023-08-24T08:26:56;13.35;;;3.92;;
30539;SDS011;17321;46.312;4.776;2023-08-24T08:29:22;10.63;;;4.63;;
30539;SDS011;17321;46.312;4.776;2023-08-24T08:31:48;8.95;;;3.83;;
30539;SDS011;17321;46.312;4.776;2023-08-24T08:34:14;14.35;;;4.15;;
30539;SDS011;17321;46.312;4.776;2023-08-24T08:36:40;6.28;;;3.28;;
30539;SDS011;17321;46.312;4.776;2023-08-24T08:39:07;8.88;;;3.92;;
30539;SDS011;17321;46.312;4.776;2023-08-24T08:41:33;12.48;;;4.07;;
30539;SDS011;17321;46.312;4.776;2023-08-24T08:44:04;13.70;;;4.10;;
30539;SDS011;17321;46.312;4.776;2023-08-24T08:46:34;13.18;;;4.50;;
30539;SDS011;17321;46.312;4.776;2023-08-24T08:49:00;8.15;;;4.22;;
30539;SDS011;17321;46.312;4.776;2023-08-24T08:51:27;10.82;;;4.57;;
30539;SDS011;17321;46.312;4.776;2023-08-24T08:53:54;7.63;;;3.60;;
30539;SDS011;17321;46.312;4.776;2023-08-24T08:56:20;18.08;;;4.72;;
30539;SDS011;17321;46.312;4.776;2023-08-24T08:58:46;17.42;;;4.50;;
30539;SDS011;17321;46.312;4.776;2023-08-24T09:01:13;23.23;;;5.03;;
30539;SDS011;17321;46.312;4.776;2023-08-24T09:03:40;12.85;;;5.22;;
30539;SDS011;17321;46.312;4.776;2023-08-24T09:06:06;21.63;;;5.55;;
30539;SDS011;17321;46.312;4.776;2023-08-24T09:08:33;18.35;;;5.45;;
30539;SDS011;17321;46.312;4.776;2023-08-24T09:10:59;26.27;;;4.97;;
30539;SDS011;17321;46.312;4.776;2023-08-24T09:13:25;17.55;;;5.63;;
30539;SDS011;17321;46.312;4.776;2023-08-24T09:15:52;10.25;;;3.92;;
30539;SDS011;17321;46.312;4.776;2023-08-24T09:18:21;24.20;;;4.82;;
30539;SDS011;17321;46.312;4.776;2023-08-24T09:20:47;22.10;;;5.07;;
30539;SDS011;17321;46.312;4.776;2023-08-24T09:23:19;10.50;;;4.05;;
30539;SDS011;17321;46.312;4.776;2023-08-24T09:25:46;14.27;;;4.63;;
30539;SDS011;17321;46.312;4.776;2023-08-24T09:28:19;19.10;;;4.78;;
30539;SDS011;17321;46.312;4.776;2023-08-24T09:30:51;22.05;;;4.80;;
30539;SDS011;17321;46.312;4.776;2023-08-24T09:33:18;31.17;;;5.43;;
30539;SDS011;17321;46.312;4.776;2023-08-24T09:35:44;22.85;;;5.25;;
30539;SDS011;17321;46.312;4.776;2023-08-24T09:40:45;12.13;;;4.45;;
30539;SDS011;17321;46.312;4.776;2023-08-24T09:43:13;22.08;;;5.85;;
30539;SDS011;17321;46.312;4.776;2023-08-24T09:45:47;11.90;;;4.68;;
30539;SDS011;17321;46.312;4.776;2023-08-24T09:48:14;27.60;;;5.53;;
30539;SDS011;17321;46.312;4.776;2023-08-24T09:50:40;20.90;;;4.45;;
30539;SDS011;17321;46.312;4.776;2023-08-24T09:53:06;24.70;;;5.05;;
30539;SDS011;17321;46.312;4.776;2023-08-24T09:55:34;17.15;;;5.20;;
30539;SDS011;17321;46.312;4.776;2023-08-24T09:58:02;17.77;;;5.55;;
30539;SDS011;17321;46.312;4.776;2023-08-24T10:00:28;22.90;;;4.85;;
30539;SDS011;17321;46.312;4.776;2023-08-24T10:02:55;12.82;;;4.95;;
30539;SDS011;17321;46.312;4.776;2023-08-24T10:05:24;21.13;;;4.82;;
30539;SDS011;17321;46.312;4.776;2023-08-24T10:07:55;16.38;;;4.95;;
30539;SDS011;17321;46.312;4.776;2023-08-24T10:10:21;25.98;;;5.53;;
30539;SDS011;17321;46.312;4.776;2023-08-24T10:13:08;15.93;;;4.93;;
30539;SDS011;17321;46.312;4.776;2023-08-24T10:15:37;20.30;;;4.95;;
30539;SDS011;17321;46.312;4.776;2023-08-24T10:18:11;16.33;;;5.10;;
30539;SDS011;17321;46.312;4.776;2023-08-24T10:20:37;14.20;;;5.32;;
30539;SDS011;17321;46.312;4.776;2023-08-24T10:23:03;16.65;;;4.53;;
30539;SDS011;17321;46.312;4.776;2023-08-24T10:25:29;14.75;;;4.75;;
30539;SDS011;17321;46.312;4.776;2023-08-24T10:27:56;19.35;;;4.78;;
30539;SDS011;17321;46.312;4.776;2023-08-24T10:30:23;21.77;;;4.73;;
30539;SDS011;17321;46.312;4.776;2023-08-24T10:32:50;15.88;;;4.93;;
30539;SDS011;17321;46.312;4.776;2023-08-24T10:35:19;16.33;;;4.95;;
30539;SDS011;17321;46.312;4.776;2023-08-24T10:37:45;17.27;;;4.93;;
30539;SDS011;17321;46.312;4.776;2023-08-24T10:40:11;21.40;;;5.45;;
30539;SDS011;17321;46.312;4.776;2023-08-24T10:42:45;16.15;;;5.45;;
30539;SDS011;17321;46.312;4.776;2023-08-24T10:45:14;20.40;;;5.28;;
30539;SDS011;17321;46.312;4.776;2023-08-24T10:47:44;14.68;;;5.65;;
30539;SDS011;17321;46.312;4.776;2023-08-24T10:50:13;12.77;;;4.75;;
30539;SDS011;17321;46.312;4.776;2023-08-24T10:52:40;15.98;;;6.28;;
30539;SDS011;17321;46.312;4.776;2023-08-24T10:55:21;17.08;;;3.90;;
30539;SDS011;17321;46.312;4.776;2023-08-24T10:57:57;20.95;;;4.70;;
30539;SDS011;17321;46.312;4.776;2023-08-24T11:00:27;20.77;;;5.18;;
30539;SDS011;17321;46.312;4.776;2023-08-24T11:02:53;22.17;;;5.28;;
30539;SDS011;17321;46.312;4.776;2023-08-24T11:05:24;23.90;;;6.07;;
30539;SDS011;17321;46.312;4.776;2023-08-24T11:10:19;22.77;;;4.53;;
30539;SDS011;17321;46.312;4.776;2023-08-24T11:15:30;10.73;;;4.63;;
30539;SDS011;17321;46.312;4.776;2023-08-24T11:20:45;19.35;;;4.82;;
30539;SDS011;17321;46.312;4.776;2023-08-24T11:23:12;14.63;;;4.45;;
30539;SDS011;17321;46.312;4.776;2023-08-24T11:25:38;14.32;;;3.92;;
30539;SDS011;17321;46.312;4.776;2023-08-24T11:28:04;15.60;;;4.32;;
30539;SDS011;17321;46.312;4.776;2023-08-24T11:30:31;13.00;;;4.57;;
30539;SDS011;17321;46.312;4.776;2023-08-24T11:32:58;15.18;;;4.93;;
30539;SDS011;17321;46.312;4.776;2023-08-24T11:35:24;16.25;;;4.18;;
30539;SDS011;17321;46.312;4.776;2023-08-24T11:37:55;32.63;;;4.53;;
30539;SDS011;17321;46.312;4.776;2023-08-24T11:40:22;19.60;;;4.78;;
30539;SDS011;17321;46.312;4.776;2023-08-24T11:42:54;15.45;;;4.80;;
30539;SDS011;17321;46.312;4.776;2023-08-24T11:45:21;11.55;;;5.25;;
30539;SDS011;17321;46.312;4.776;2023-08-24T11:47:48;17.50;;;3.97;;
30539;SDS011;17321;46.312;4.776;2023-08-24T11:50:16;22.90;;;4.67;;
30539;SDS011;17321;46.312;4.776;2023-08-24T11:52:42;12.38;;;3.97;;
30539;SDS011;17321;46.312;4.776;2023-08-24T11:55:09;13.82;;;4.65;;
30539;SDS011;17321;46.312;4.776;2023-08-24T11:57:36;17.95;;;4.72;;
30539;SDS011;17321;46.312;4.776;2023-08-24T12:00:03;13.73;;;3.92;;
30539;SDS011;17321;46.312;4.776;2023-08-24T12:02:29;12.38;;;4.30;;
30539;SDS011;17321;46.312;4.776;2023-08-24T12:04:57;31.08;;;5.25;;
30539;SDS011;17321;46.312;4.776;2023-08-24T12:07:23;13.45;;;4.40;;
30539;SDS011;17321;46.312;4.776;2023-08-24T12:09:51;14.82;;;4.60;;
30539;SDS011;17321;46.312;4.776;2023-08-24T12:12:20;14.60;;;3.95;;
30539;SDS011;17321;46.312;4.776;2023-08-24T12:14:48;18.10;;;4.50;;
30539;SDS011;17321;46.312;4.776;2023-08-24T12:17:15;17.67;;;4.65;;
30539;SDS011;17321;46.312;4.776;2023-08-24T12:19:43;15.68;;;4.32;;
30539;SDS011;17321;46.312;4.776;2023-08-24T12:22:15;16.88;;;4.90;;
30539;SDS011;17321;46.312;4.776;2023-08-24T12:24:45;18.67;;;3.88;;
30539;SDS011;17321;46.312;4.776;2023-08-24T12:27:22;18.02;;;4.68;;
30539;SDS011;17321;46.312;4.776;2023-08-24T12:29:49;11.20;;;4.22;;
30539;SDS011;17321;46.312;4.776;2023-08-24T12:32:15;20.92;;;3.80;;
30539;SDS011;17321;46.312;4.776;2023-08-24T12:34:44;17.13;;;4.32;;
30539;SDS011;17321;46.312;4.776;2023-08-24T12:37:11;18.55;;;4.15;;
30539;SDS011;17321;46.312;4.776;2023-08-24T12:39:38;20.77;;;4.45;;
30539;SDS011;17321;46.312;4.776;2023-08-24T12:42:04;16.05;;;4.30;;
30539;SDS011;17321;46.312;4.776;2023-08-24T12:44:31;15.27;;;4.28;;
30539;SDS011;17321;46.312;4.776;2023-08-24T12:46:58;16.02;;;3.95;;
30539;SDS011;17321;46.312;4.776;2023-08-24T12:49:24;11.52;;;3.88;;
30539;SDS011;17321;46.312;4.776;2023-08-24T12:51:51;25.17;;;4.35;;
30539;SDS011;17321;46.312;4.776;2023-08-24T12:54:17;17.52;;;4.35;;
30539;SDS011;17321;46.312;4.776;2023-08-24T12:56:43;11.57;;;4.28;;
30539;SDS011;17321;46.312;4.776;2023-08-24T12:59:09;13.93;;;4.78;;
30539;SDS011;17321;46.312;4.776;2023-08-24T13:01:35;21.00;;;4.97;;
30539;SDS011;17321;46.312;4.776;2023-08-24T13:04:02;14.30;;;4.45;;
30539;SDS011;17321;46.312;4.776;2023-08-24T13:06:28;10.60;;;3.47;;
30539;SDS011;17321;46.312;4.776;2023-08-24T13:08:55;21.95;;;4.90;;
30539;SDS011;17321;46.312;4.776;2023-08-24T13:11:21;16.40;;;5.10;;
30539;SDS011;17321;46.312;4.776;2023-08-24T13:13:48;22.55;;;4.90;;
30539;SDS011;17321;46.312;4.776;2023-08-24T13:16:14;16.45;;;4.53;;
30539;SDS011;17321;46.312;4.776;2023-08-24T13:18:41;21.30;;;4.43;;
30539;SDS011;17321;46.312;4.776;2023-08-24T13:21:07;11.75;;;3.95;;
30539;SDS011;17321;46.312;4.776;2023-08-24T13:23:33;18.40;;;4.60;;
30539;SDS011;17321;46.312;4.776;2023-08-24T13:26:00;15.80;;;3.67;;
30539;SDS011;17321;46.312;4.776;2023-08-24T13:28:26;16.70;;;4.78;;
30539;SDS011;17321;46.312;4.776;2023-08-24T13:30:54;19.80;;;5.07;;
30539;SDS011;17321;46.312;4.776;2023-08-24T13:33:20;19.75;;;5.30;;
30539;SDS011;17321;46.312;4.776;2023-08-24T13:35:47;21.95;;;4.50;;
30539;SDS011;17321;46.312;4.776;2023-08-24T13:38:13;21.73;;;4.47;;
30539;SDS011;17321;46.312;4.776;2023-08-24T13:40:39;18.13;;;4.72;;
30539;SDS011;17321;46.312;4.776;2023-08-24T13:43:05;16.35;;;4.80;;
30539;SDS011;17321;46.312;4.776;2023-08-24T13:45:32;24.88;;;4.53;;
30539;SDS011;17321;46.312;4.776;2023-08-24T13:47:59;20.30;;;3.95;;
30539;SDS011;17321;46.312;4.776;2023-08-24T13:50:25;13.45;;;4.28;;
30539;SDS011;17321;46.312;4.776;2023-08-24T13:52:51;20.38;;;4.25;;
30539;SDS011;17321;46.312;4.776;2023-08-24T13:55:18;17.35;;;4.55;;
30539;SDS011;17321;46.312;4.776;2023-08-24T13:57:44;16.85;;;4.60;;
30539;SDS011;17321;46.312;4.776;2023-08-24T14:00:10;14.85;;;4.30;;
30539;SDS011;17321;46.312;4.776;2023-08-24T14:02:36;17.02;;;4.80;;
30539;SDS011;17321;46.312;4.776;2023-08-24T14:05:02;28.10;;;4.88;;
30539;SDS011;17321;46.312;4.776;2023-08-24T14:07:31;29.52;;;4.97;;
30539;SDS011;17321;46.312;4.776;2023-08-24T14:09:57;32.13;;;5.55;;
30539;SDS011;17321;46.312;4.776;2023-08-24T14:12:23;23.13;;;5.22;;
30539;SDS011;17321;46.312;4.776;2023-08-24T14:14:50;15.02;;;4.13;;
30539;SDS011;17321;46.312;4.776;2023-08-24T14:17:16;22.02;;;4.40;;
30539;SDS011;17321;46.312;4.776;2023-08-24T14:19:42;17.17;;;5.05;;
30539;SDS011;17321;46.312;4.776;2023-08-24T14:22:08;19.05;;;4.57;;
30539;SDS011;17321;46.312;4.776;2023-08-24T14:24:35;27.38;;;4.72;;
30539;SDS011;17321;46.312;4.776;2023-08-24T14:27:01;23.00;;;4.75;;
30539;SDS011;17321;46.312;4.776;2023-08-24T14:29:27;18.15;;;5.22;;
30539;SDS011;17321;46.312;4.776;2023-08-24T14:31:53;14.73;;;4.28;;
30539;SDS011;17321;46.312;4.776;2023-08-24T14:34:19;20.83;;;5.03;;
30539;SDS011;17321;46.312;4.776;2023-08-24T14:36:48;13.02;;;4.75;;
30539;SDS011;17321;46.312;4.776;2023-08-24T14:39:19;17.25;;;5.13;;
30539;SDS011;17321;46.312;4.776;2023-08-24T14:41:45;15.93;;;5.00;;
30539;SDS011;17321;46.312;4.776;2023-08-24T14:44:11;18.27;;;5.25;;
30539;SDS011;17321;46.312;4.776;2023-08-24T14:46:37;18.98;;;4.93;;
30539;SDS011;17321;46.312;4.776;2023-08-24T14:49:04;17.83;;;5.03;;
30539;SDS011;17321;46.312;4.776;2023-08-24T14:51:30;16.02;;;5.07;;
30539;SDS011;17321;46.312;4.776;2023-08-24T14:53:56;15.30;;;4.93;;
30539;SDS011;17321;46.312;4.776;2023-08-24T14:56:22;13.35;;;4.43;;